Time;durP1;ratioP1;P1;durP2;ratioP2;P2;SDS_P1;SDS_P2;PMS_P1;PMS_P2;Temp;Humidity;BMP_temperature;BMP_pressure;BME280_temperature;BME280_humidity;BME280_pressure;Samples;Min_cycle;Max_cycle;Signal;HPM_P1;HPM_P2
2023/08/18 00:01:57;;;;;;;9.25;3.00;;;;;;;26.61;73.12;101461.88;5019426;27;97400;-65
2023/08/18 00:04:25;;;;;;;5.20;2.95;;;;;;;26.74;71.54;101454.31;5022231;27;97640;-66
2023/08/18 00:06:52;;;;;;;4.15;2.60;;;;;;;26.61;71.35;101465.44;5023589;27;98876;-66
2023/08/18 00:09:18;;;;;;;5.13;2.80;;;;;;;26.53;71.60;101460.72;5029304;27;98858;-67
2023/08/18 00:11:44;;;;;;;5.13;2.85;;;;;;;26.47;73.28;101469.41;5024001;27;96847;-66
2023/08/18 00:14:10;;;;;;;4.03;3.20;;;;;;;26.53;72.12;101470.69;5026352;27;96906;-67
2023/08/18 00:16:37;;;;;;;3.85;2.70;;;;;;;26.53;70.81;101462.56;5029553;27;99114;-67
2023/08/18 00:19:04;;;;;;;11.23;3.35;;;;;;;26.40;72.26;101456.56;5026998;27;101956;-67
2023/08/18 00:21:31;;;;;;;5.50;2.80;;;;;;;26.37;72.52;101455.00;5027097;27;96802;-67
2023/08/18 00:23:58;;;;;;;6.85;3.00;;;;;;;26.71;70.01;101449.22;5023752;27;96768;-67
2023/08/18 00:26:24;;;;;;;8.18;4.10;;;;;;;26.48;71.17;101445.88;5029771;27;98979;-67
2023/08/18 00:28:51;;;;;;;8.77;4.30;;;;;;;26.56;71.47;101446.91;5026549;27;99012;-67
2023/08/18 00:31:17;;;;;;;7.35;3.40;;;;;;;26.43;71.98;101434.63;5030418;27;96918;-66
2023/08/18 00:33:43;;;;;;;5.15;3.40;;;;;;;26.63;71.10;101436.34;5026394;27;96963;-66
2023/08/18 00:36:10;;;;;;;4.97;3.45;;;;;;;26.58;71.75;101438.63;5027417;27;100384;-66
2023/08/18 00:38:38;;;;;;;4.60;3.40;;;;;;;26.39;71.61;101433.16;5026654;27;102366;-67
2023/08/18 00:41:04;;;;;;;6.20;3.63;;;;;;;26.61;70.73;101435.63;5027719;27;98704;-66
2023/08/18 00:43:30;;;;;;;5.03;3.53;;;;;;;26.69;70.82;101426.78;5026888;27;98149;-66
2023/08/18 00:45:57;;;;;;;8.13;4.10;;;;;;;26.67;71.27;101421.50;5028546;27;97937;-66
2023/08/18 00:48:24;;;;;;;10.77;4.00;;;;;;;26.67;70.78;101424.22;5024223;27;98979;-66
2023/08/18 00:50:51;;;;;;;5.85;3.88;;;;;;;26.64;71.85;101415.53;5029926;27;96709;-66
2023/08/18 00:53:19;;;;;;;6.47;4.03;;;;;;;26.63;70.83;101411.09;5027142;27;98646;-66
2023/08/18 00:55:48;;;;;;;7.75;4.10;;;;;;;26.62;70.87;101412.09;5029801;27;98961;-66
2023/08/18 00:58:15;;;;;;;4.10;3.67;;;;;;;26.59;71.29;101403.25;5028693;27;98886;-66
2023/08/18 01:00:42;;;;;;;8.02;4.38;;;;;;;26.55;71.24;101407.25;5027349;27;96986;-66
2023/08/18 01:03:10;;;;;;;7.25;4.57;;;;;;;26.40;71.95;101400.50;5028270;27;96800;-65
2023/08/18 01:05:37;;;;;;;5.70;4.22;;;;;;;26.62;70.75;101404.81;5023886;27;99629;-68
2023/08/18 01:08:04;;;;;;;6.90;4.20;;;;;;;26.60;70.64;101401.38;5018187;27;98800;-66
2023/08/18 01:10:33;;;;;;;7.60;4.90;;;;;;;26.52;70.91;101402.09;5021310;27;97879;-66
2023/08/18 01:13:07;;;;;;;7.85;4.50;;;;;;;26.57;70.73;101407.97;5029931;27;97744;-65
2023/08/18 01:15:36;;;;;;;7.75;4.55;;;;;;;26.63;71.23;101406.53;5029063;27;98450;-66
2023/08/18 01:18:04;;;;;;;7.47;4.90;;;;;;;26.48;71.51;101414.22;5029429;27;100525;-66
2023/08/18 01:20:31;;;;;;;10.50;4.75;;;;;;;26.69;71.68;101411.38;5032354;27;97097;-65
2023/08/18 01:22:59;;;;;;;5.55;4.68;;;;;;;26.64;72.27;101410.97;5028847;27;97469;-67
2023/08/18 01:25:27;;;;;;;10.75;4.90;;;;;;;26.51;72.28;101416.66;5027814;27;99172;-66
2023/08/18 01:27:55;;;;;;;7.28;4.40;;;;;;;26.58;72.54;101420.50;5030632;27;99377;-66
2023/08/18 01:30:24;;;;;;;6.30;5.32;;;;;;;26.57;73.71;101423.38;5024482;27;97014;-66
2023/08/18 01:32:56;;;;;;;5.40;4.90;;;;;;;26.18;76.53;101423.28;5031299;27;96971;-66
2023/08/18 01:35:27;;;;;;;6.00;5.13;;;;;;;26.18;76.78;101428.69;5029620;27;99797;-66
2023/08/18 01:37:55;;;;;;;7.65;5.20;;;;;;;26.24;77.32;101419.19;5027314;27;97634;-66
2023/08/18 01:40:27;;;;;;;9.77;5.50;;;;;;;26.14;77.76;101426.38;5024056;27;96757;-66
2023/08/18 01:42:53;;;;;;;5.80;4.72;;;;;;;25.81;79.54;101432.97;5026394;27;96776;-66
2023/08/18 01:45:20;;;;;;;9.98;5.43;;;;;;;25.78;79.58;101434.09;5024952;27;99177;-66
2023/08/18 01:47:46;;;;;;;5.68;4.50;;;;;;;26.04;78.71;101442.63;5028687;27;98752;-65
2023/08/18 01:50:13;;;;;;;5.50;5.00;;;;;;;26.16;77.59;101444.22;5030370;27;97363;-66
2023/08/18 01:52:39;;;;;;;6.47;5.75;;;;;;;26.29;77.01;101444.00;5029906;27;98525;-65
2023/08/18 01:55:06;;;;;;;7.75;5.40;;;;;;;26.33;76.45;101441.84;5025809;27;98942;-67
2023/08/18 01:57:34;;;;;;;8.57;5.05;;;;;;;26.26;76.94;101446.97;5030145;27;99013;-66
2023/08/18 02:00:00;;;;;;;8.45;5.30;;;;;;;25.96;79.31;101449.69;5024795;27;98698;-66
2023/08/18 02:02:27;;;;;;;7.13;5.35;;;;;;;25.92;79.60;101454.53;5024635;27;96867;-65
2023/08/18 02:04:56;;;;;;;8.50;5.72;;;;;;;25.58;81.70;101440.41;5025668;27;98224;-66
2023/08/18 02:07:22;;;;;;;5.95;5.10;;;;;;;25.91;79.69;101451.97;5029881;27;99188;-66
2023/08/18 02:09:49;;;;;;;6.90;5.05;;;;;;;25.81;79.91;101443.78;5025148;27;96968;-66
2023/08/18 02:12:15;;;;;;;9.05;5.75;;;;;;;25.94;79.46;101440.84;5026549;27;97325;-65
2023/08/18 02:14:43;;;;;;;9.65;5.05;;;;;;;26.09;78.81;101444.91;5031503;27;97668;-67
2023/08/18 02:17:09;;;;;;;11.05;5.90;;;;;;;25.95;79.26;101440.72;5028949;27;98811;-67
2023/08/18 02:19:35;;;;;;;6.38;5.68;;;;;;;26.00;78.53;101441.16;5022516;27;97267;-65
2023/08/18 02:22:02;;;;;;;9.07;5.97;;;;;;;25.96;77.87;101439.72;5030082;27;97693;-66
2023/08/18 02:24:28;;;;;;;10.38;5.75;;;;;;;26.22;77.36;101436.53;5027735;27;101956;-66
2023/08/18 02:26:55;;;;;;;8.18;5.30;;;;;;;26.20;76.95;101433.94;5025748;27;99171;-66
2023/08/18 02:29:22;;;;;;;8.20;5.80;;;;;;;26.15;76.52;101425.38;5030538;27;101470;-66
2023/08/18 02:31:51;;;;;;;8.85;5.43;;;;;;;26.31;75.82;101431.19;5029145;27;96853;-65
2023/08/18 02:34:19;;;;;;;8.52;5.80;;;;;;;26.04;77.29;101426.38;5030515;27;100860;-66
2023/08/18 02:36:45;;;;;;;8.48;6.43;;;;;;;26.00;78.14;101426.75;5027292;27;99039;-66
2023/08/18 02:39:12;;;;;;;6.25;5.65;;;;;;;25.94;78.26;101425.47;5029714;27;96853;-66
2023/08/18 02:41:38;;;;;;;9.85;5.97;;;;;;;25.59;80.58;101422.34;5029264;27;98612;-66
2023/08/18 02:44:05;;;;;;;13.00;6.75;;;;;;;25.82;80.00;101429.25;5028744;27;98915;-67
2023/08/18 02:46:31;;;;;;;13.63;6.38;;;;;;;25.71;80.79;101426.66;5025029;27;99246;-65
2023/08/18 02:48:59;;;;;;;9.15;6.28;;;;;;;25.87;80.04;101432.41;5017597;27;97229;-66
2023/08/18 02:51:25;;;;;;;8.02;5.80;;;;;;;25.77;81.17;101432.38;5025115;27;98047;-65
2023/08/18 02:53:52;;;;;;;6.97;5.65;;;;;;;25.91;80.25;101439.28;5027691;27;98967;-65
2023/08/18 02:56:18;;;;;;;9.60;6.00;;;;;;;25.96;80.08;101436.16;5027147;27;97867;-66
2023/08/18 02:58:44;;;;;;;9.38;5.53;;;;;;;26.07;79.49;101433.34;5027574;27;96838;-66
2023/08/18 03:01:11;;;;;;;9.65;5.95;;;;;;;26.16;78.07;101433.38;5026852;27;97461;-66
2023/08/18 03:03:38;;;;;;;11.43;5.93;;;;;;;26.25;77.03;101430.88;5026913;27;98946;-66
2023/08/18 03:06:09;;;;;;;11.63;6.20;;;;;;;26.23;77.22;101433.69;5027267;27;99142;-66
2023/08/18 03:08:38;;;;;;;8.38;5.57;;;;;;;26.19;78.26;101426.81;5022843;27;96880;-66
2023/08/18 03:11:05;;;;;;;8.23;5.63;;;;;;;25.96;79.31;101419.91;5025700;27;96801;-66
2023/08/18 03:13:32;;;;;;;10.23;5.88;;;;;;;26.00;79.04;101419.50;5027423;27;99007;-66
2023/08/18 03:15:59;;;;;;;15.30;6.43;;;;;;;26.23;77.67;101432.81;5025960;27;98817;-66
2023/08/18 03:18:25;;;;;;;9.48;6.53;;;;;;;26.28;77.73;101434.16;5029633;27;98766;-66
2023/08/18 03:20:59;;;;;;;8.10;6.53;;;;;;;26.21;78.47;101446.50;5029247;27;96898;-68
2023/08/18 03:23:27;;;;;;;12.60;6.82;;;;;;;25.84;80.53;101439.97;5027356;27;99492;-66
2023/08/18 03:26:00;;;;;;;14.18;8.57;;;;;;;25.86;79.93;101444.25;5024037;27;101082;-66
2023/08/18 03:28:27;;;;;;;14.05;7.30;;;;;;;26.01;79.61;101442.88;5030261;27;96818;-67
2023/08/18 03:30:53;;;;;;;15.95;11.35;;;;;;;26.02;78.88;101451.84;5029555;27;97010;-65
2023/08/18 03:33:19;;;;;;;12.02;8.57;;;;;;;26.08;78.50;101449.47;5028735;27;98871;-65
2023/08/18 03:35:49;;;;;;;20.38;12.95;;;;;;;26.25;76.85;101439.84;5023911;27;98828;-65
2023/08/18 03:38:15;;;;;;;23.00;15.15;;;;;;;26.15;77.11;101450.63;5027973;27;98542;-65
2023/08/18 03:40:43;;;;;;;19.88;14.10;;;;;;;26.31;76.34;101446.56;5025579;27;96972;-65
2023/08/18 03:43:09;;;;;;;24.27;13.18;;;;;;;26.21;77.26;101446.50;5025615;27;98658;-65
2023/08/18 03:45:36;;;;;;;27.58;17.25;;;;;;;26.14;76.75;101461.59;5022251;27;98825;-65
2023/08/18 03:48:02;;;;;;;28.10;17.67;;;;;;;26.25;76.55;101456.13;5025020;27;97630;-65
2023/08/18 03:50:29;;;;;;;35.20;19.80;;;;;;;26.30;75.74;101451.13;5030548;27;96952;-65
2023/08/18 03:52:55;;;;;;;40.15;21.67;;;;;;;26.30;75.83;101455.69;5029017;27;98054;-65
2023/08/18 03:55:22;;;;;;;36.65;21.63;;;;;;;26.13;76.68;101457.16;5025639;27;98711;-64
2023/08/18 03:57:49;;;;;;;31.33;18.05;;;;;;;26.09;75.93;101453.88;5024477;27;96852;-65
2023/08/18 04:00:17;;;;;;;35.25;18.80;;;;;;;26.11;76.46;101462.75;5030130;27;96793;-66
2023/08/18 04:02:44;;;;;;;32.35;17.63;;;;;;;26.23;75.85;101462.63;5022983;27;100125;-64
2023/08/18 04:05:10;;;;;;;40.42;18.65;;;;;;;26.21;75.79;101476.28;5026727;27;98228;-64
2023/08/18 04:07:37;;;;;;;28.70;17.17;;;;;;;26.28;75.47;101476.63;5026066;27;96980;-64
2023/08/18 04:10:04;;;;;;;27.55;16.30;;;;;;;26.16;75.79;101475.84;5028192;27;97016;-66
2023/08/18 04:12:30;;;;;;;36.05;16.85;;;;;;;26.26;75.37;101467.78;5028064;27;99651;-64
2023/08/18 04:14:58;;;;;;;25.00;15.50;;;;;;;26.32;74.98;101470.78;5023354;27;99476;-66
2023/08/18 04:17:24;;;;;;;27.73;16.27;;;;;;;26.19;75.06;101473.72;5027347;27;96811;-66
2023/08/18 04:19:51;;;;;;;33.50;17.67;;;;;;;26.30;74.71;101472.81;5026143;27;97997;-66
2023/08/18 04:22:17;;;;;;;31.20;16.58;;;;;;;26.32;74.28;101475.38;5027354;27;99380;-66
2023/08/18 04:24:44;;;;;;;24.70;14.20;;;;;;;26.29;74.77;101475.66;5021473;27;100100;-66
2023/08/18 04:27:10;;;;;;;24.00;14.05;;;;;;;26.11;74.91;101478.97;5026265;27;98387;-65
2023/08/18 04:29:36;;;;;;;27.70;15.82;;;;;;;26.34;74.63;101473.38;5029790;27;96859;-65
2023/08/18 04:32:05;;;;;;;19.60;12.60;;;;;;;26.32;74.89;101480.81;5024300;27;101296;-66
2023/08/18 04:34:31;;;;;;;25.38;13.85;;;;;;;26.22;75.92;101482.56;5026914;27;99575;-65
2023/08/18 04:36:58;;;;;;;22.70;12.85;;;;;;;26.36;75.65;101488.50;5021139;27;97675;-65
2023/08/18 04:39:24;;;;;;;18.63;10.85;;;;;;;26.36;74.51;101488.50;5029820;27;97961;-65
2023/08/18 04:41:51;;;;;;;21.90;11.18;;;;;;;26.44;74.17;101477.84;5024884;27;101610;-65
2023/08/18 04:44:17;;;;;;;15.60;10.50;;;;;;;26.49;74.22;101480.97;5028329;27;100481;-65
2023/08/18 04:46:43;;;;;;;16.25;9.32;;;;;;;26.44;75.05;101472.41;5025785;27;97223;-65
2023/08/18 04:49:11;;;;;;;14.93;9.02;;;;;;;26.52;73.37;101477.97;5028343;27;96975;-66
2023/08/18 04:51:38;;;;;;;17.27;8.90;;;;;;;26.67;72.79;101475.72;5028006;27;99276;-64
2023/08/18 04:54:04;;;;;;;14.52;9.30;;;;;;;26.65;73.18;101474.16;5029171;27;99434;-65
2023/08/18 04:56:31;;;;;;;18.50;9.80;;;;;;;26.54;73.57;101476.00;5024768;27;100144;-66
2023/08/18 04:58:57;;;;;;;15.05;9.85;;;;;;;26.68;73.55;101474.72;5032004;27;96917;-66
2023/08/18 05:01:24;;;;;;;15.70;8.52;;;;;;;26.77;72.92;101475.75;5031081;27;102745;-65
2023/08/18 05:03:50;;;;;;;17.15;7.97;;;;;;;26.80;72.77;101479.03;5032778;27;98127;-66
2023/08/18 05:06:19;;;;;;;13.93;9.20;;;;;;;26.84;72.37;101477.75;5024071;27;97088;-65
2023/08/18 05:08:46;;;;;;;18.40;7.47;;;;;;;26.98;71.23;101479.19;5030852;27;97704;-65
2023/08/18 05:11:13;;;;;;;10.10;7.50;;;;;;;27.10;71.36;101483.50;5025537;27;98060;-65
2023/08/18 05:13:41;;;;;;;12.02;8.52;;;;;;;26.84;72.81;101483.19;5024878;27;101827;-65
2023/08/18 05:16:08;;;;;;;16.42;8.90;;;;;;;27.05;72.21;101485.75;5029958;27;96880;-65
2023/08/18 05:18:34;;;;;;;13.18;7.97;;;;;;;26.99;72.82;101489.03;5032126;27;97179;-64
2023/08/18 05:21:02;;;;;;;10.20;8.07;;;;;;;27.11;72.63;101496.03;5028165;27;99018;-65
2023/08/18 05:23:30;;;;;;;13.85;8.18;;;;;;;27.24;71.22;101491.16;5026278;27;101615;-65
2023/08/18 05:25:57;;;;;;;11.52;7.60;;;;;;;26.92;72.50;101491.47;5029093;27;96842;-64
2023/08/18 05:28:24;;;;;;;13.73;8.15;;;;;;;27.10;72.10;101488.06;5030618;27;97470;-65
2023/08/18 05:30:52;;;;;;;13.73;8.27;;;;;;;27.07;72.61;101482.91;5029660;27;98372;-65
2023/08/18 05:33:19;;;;;;;12.18;8.77;;;;;;;27.24;71.06;101487.63;5031886;27;98908;-64
2023/08/18 05:35:47;;;;;;;17.02;8.00;;;;;;;27.28;70.83;101489.03;5031460;27;98627;-65
2023/08/18 05:38:14;;;;;;;18.40;8.38;;;;;;;27.19;70.16;101484.47;5029878;27;97423;-65
2023/08/18 05:40:43;;;;;;;13.25;8.38;;;;;;;27.21;70.53;101483.34;5028900;27;99427;-64
2023/08/18 05:43:10;;;;;;;12.55;8.10;;;;;;;27.19;70.30;101479.91;5030121;27;98564;-65
2023/08/18 05:45:37;;;;;;;9.98;7.95;;;;;;;27.32;70.25;101477.75;5028873;27;98169;-65
2023/08/18 05:48:04;;;;;;;12.68;8.02;;;;;;;27.50;69.83;101477.03;5031143;27;96816;-64
2023/08/18 05:50:31;;;;;;;14.77;8.73;;;;;;;27.71;68.68;101477.69;5032666;27;99568;-64
2023/08/18 05:52:58;;;;;;;15.70;8.35;;;;;;;27.75;68.71;101473.69;5032160;27;96746;-64
2023/08/18 05:55:25;;;;;;;14.50;9.20;;;;;;;27.95;67.91;101469.06;5032594;27;96807;-64
2023/08/18 05:57:53;;;;;;;24.23;14.27;;;;;;;27.88;68.50;101468.78;5029072;27;97054;-64
2023/08/18 06:00:20;;;;;;;14.75;9.55;;;;;;;28.07;67.82;101468.72;5029123;27;99309;-66
2023/08/18 06:02:46;;;;;;;12.90;8.48;;;;;;;28.11;66.98;101470.09;5031156;27;99148;-65
2023/08/18 06:05:13;;;;;;;16.00;8.70;;;;;;;27.97;68.12;101472.44;5032181;27;97775;-66
2023/08/18 06:07:40;;;;;;;11.73;8.63;;;;;;;28.22;67.63;101476.41;5031915;27;101613;-65
2023/08/18 06:10:11;;;;;;;21.05;8.35;;;;;;;28.24;67.23;101474.38;5023862;27;99409;-65
2023/08/18 06:12:38;;;;;;;16.83;8.98;;;;;;;28.54;66.06;101471.34;5028719;27;99675;-65
2023/08/18 06:15:08;;;;;;;17.10;8.88;;;;;;;28.24;66.66;101485.22;5023741;27;97803;-65
2023/08/18 06:17:35;;;;;;;15.50;9.85;;;;;;;28.32;65.88;101485.34;5023760;27;98762;-65
2023/08/18 06:20:02;;;;;;;13.90;8.63;;;;;;;28.17;64.62;101489.56;5027971;27;99270;-65
2023/08/18 06:22:28;;;;;;;10.80;7.70;;;;;;;28.13;65.06;101484.41;5028499;27;101683;-69
2023/08/18 06:24:55;;;;;;;13.73;8.18;;;;;;;28.14;65.41;101479.84;5028283;27;97429;-65
2023/08/18 06:27:21;;;;;;;13.75;7.38;;;;;;;28.27;65.02;101485.81;5028846;27;97383;-64
2023/08/18 06:29:47;;;;;;;10.18;7.45;;;;;;;28.38;64.96;101490.16;5025062;27;98947;-64
2023/08/18 06:32:15;;;;;;;11.43;7.90;;;;;;;28.53;64.00;101485.94;5025106;27;100377;-64
2023/08/18 06:34:44;;;;;;;11.57;7.80;;;;;;;28.29;63.69;101485.66;5026619;27;97025;-65
2023/08/18 06:37:11;;;;;;;10.35;7.55;;;;;;;28.42;63.80;101478.00;5026031;27;99077;-65
2023/08/18 06:39:37;;;;;;;11.23;7.38;;;;;;;28.53;62.90;101477.78;5024062;27;99009;-65
2023/08/18 06:42:04;;;;;;;10.48;7.55;;;;;;;28.39;62.69;101486.44;5024730;27;98851;-65
2023/08/18 06:44:32;;;;;;;9.13;7.10;;;;;;;28.74;62.20;101485.66;5021328;27;98197;-65
2023/08/18 06:46:59;;;;;;;10.70;7.50;;;;;;;28.68;62.52;101489.84;5030773;27;96798;-65
2023/08/18 06:49:27;;;;;;;14.05;7.28;;;;;;;28.96;62.19;101487.94;5026569;27;99027;-65
2023/08/18 06:51:56;;;;;;;11.88;6.80;;;;;;;29.10;60.54;101492.81;5027877;27;98865;-65
2023/08/18 06:54:26;;;;;;;10.73;7.05;;;;;;;28.95;60.36;101491.66;5026080;27;97747;-64
2023/08/18 06:56:52;;;;;;;8.10;6.30;;;;;;;28.92;60.73;101483.81;5027666;27;97013;-65
2023/08/18 06:59:19;;;;;;;8.90;6.68;;;;;;;28.91;60.99;101485.69;5027966;27;99846;-65
2023/08/18 07:01:45;;;;;;;7.13;6.43;;;;;;;29.08;59.91;101489.41;5027247;27;99161;-66
2023/08/18 07:04:12;;;;;;;10.38;6.82;;;;;;;29.16;60.13;101477.75;5025975;27;96786;-64
2023/08/18 07:06:44;;;;;;;12.02;6.55;;;;;;;29.25;58.64;101483.09;5024891;27;97091;-67
2023/08/18 07:09:13;;;;;;;12.45;7.15;;;;;;;29.76;56.94;101483.31;5020671;27;101866;-65
2023/08/18 07:11:40;;;;;;;14.18;6.47;;;;;;;29.37;56.90;101480.16;5026430;27;99197;-66
2023/08/18 07:14:07;;;;;;;14.38;7.82;;;;;;;29.53;56.60;101470.25;5023010;27;97772;-66
2023/08/18 07:16:33;;;;;;;8.02;5.82;;;;;;;29.71;56.53;101470.19;5020174;27;97413;-66
2023/08/18 07:19:00;;;;;;;10.00;6.43;;;;;;;29.80;55.59;101471.09;5025233;28;99262;-64
2023/08/18 07:21:27;;;;;;;9.07;6.15;;;;;;;29.79;55.55;101472.09;5021522;27;98860;-64
2023/08/18 07:23:54;;;;;;;8.40;6.60;;;;;;;29.95;55.22;101469.50;5028817;27;96773;-65
2023/08/18 07:26:21;;;;;;;8.40;5.93;;;;;;;29.96;55.08;101466.59;5026759;27;102241;-64
2023/08/18 07:28:47;;;;;;;8.27;5.43;;;;;;;30.58;53.44;101469.94;5023380;27;101074;-65
2023/08/18 07:31:14;;;;;;;11.82;5.68;;;;;;;30.55;52.53;101453.91;5022799;27;98906;-64
2023/08/18 07:33:41;;;;;;;10.45;5.57;;;;;;;30.71;52.20;101464.00;5024900;27;97093;-64
2023/08/18 07:36:08;;;;;;;6.90;5.55;;;;;;;31.03;52.65;101458.56;5026592;27;97609;-65
2023/08/18 07:38:35;;;;;;;7.07;6.07;;;;;;;31.01;52.66;101460.63;5019148;27;98914;-65
2023/08/18 07:41:03;;;;;;;9.57;5.95;;;;;;;31.19;51.61;101464.06;5020850;27;99274;-65
2023/08/18 07:43:29;;;;;;;10.40;6.30;;;;;;;31.34;50.35;101457.91;5025481;27;96807;-65
2023/08/18 07:45:56;;;;;;;8.57;6.82;;;;;;;31.84;48.92;101455.78;5023614;27;96882;-66
2023/08/18 07:48:24;;;;;;;9.75;5.88;;;;;;;31.75;48.07;101456.84;5025410;27;99956;-65
2023/08/18 07:50:50;;;;;;;12.13;5.97;;;;;;;31.82;48.39;101452.38;5025538;27;101800;-65
2023/08/18 07:53:17;;;;;;;12.88;5.72;;;;;;;32.04;49.09;101451.59;5025532;27;97687;-65
2023/08/18 07:55:43;;;;;;;7.20;5.75;;;;;;;31.85;48.81;101451.16;5028600;27;97597;-67
2023/08/18 07:58:11;;;;;;;10.20;5.85;;;;;;;31.93;48.19;101452.00;5026696;27;98237;-66
2023/08/18 08:00:37;;;;;;;8.85;5.78;;;;;;;31.76;48.84;101455.81;5020243;27;98990;-67
2023/08/18 08:03:04;;;;;;;6.75;5.10;;;;;;;31.60;48.03;101461.31;5014338;27;99420;-66
2023/08/18 08:05:32;;;;;;;9.82;5.28;;;;;;;31.78;47.31;101453.75;5023097;27;97674;-64
2023/08/18 08:07:59;;;;;;;15.52;5.57;;;;;;;31.63;49.10;101450.91;5022068;27;101715;-65
2023/08/18 08:10:25;;;;;;;7.57;4.85;;;;;;;31.69;47.90;101452.09;5020647;27;99287;-65
2023/08/18 08:12:52;;;;;;;6.18;5.10;;;;;;;31.77;47.98;101452.03;5024032;27;96911;-66
2023/08/18 08:15:20;;;;;;;7.70;5.25;;;;;;;31.91;48.16;101455.91;5016834;27;97599;-67
2023/08/18 08:17:46;;;;;;;9.30;4.97;;;;;;;32.13;46.39;101451.56;5021787;27;99186;-65
2023/08/18 08:20:15;;;;;;;9.43;4.93;;;;;;;32.13;45.95;101459.78;5014685;27;99318;-66
2023/08/18 08:22:42;;;;;;;13.50;5.07;;;;;;;32.10;46.55;101465.63;5020504;27;98056;-64
2023/08/18 08:25:10;;;;;;;7.70;5.05;;;;;;;32.01;47.12;101457.44;5022112;27;98841;-64
2023/08/18 08:27:36;;;;;;;8.20;5.25;;;;;;;32.01;46.68;101456.59;5023261;27;99260;-65
2023/08/18 08:30:04;;;;;;;7.70;4.22;;;;;;;32.04;45.45;101459.81;5020831;27;98365;-65
2023/08/18 08:32:31;;;;;;;9.80;4.32;;;;;;;32.11;44.97;101462.69;5025768;27;96906;-65
2023/08/18 08:34:58;;;;;;;13.02;4.85;;;;;;;32.34;45.24;101460.91;5023572;27;97250;-65
2023/08/18 08:37:25;;;;;;;12.00;5.22;;;;;;;32.68;45.24;101463.31;5016269;27;102067;-65
2023/08/18 08:39:51;;;;;;;6.00;4.72;;;;;;;32.66;44.28;101459.00;5013451;27;98845;-65
2023/08/18 08:42:18;;;;;;;6.78;4.18;;;;;;;32.32;43.86;101460.22;5019265;27;97311;-66
2023/08/18 08:44:44;;;;;;;14.13;4.55;;;;;;;32.75;43.55;101461.56;5021145;27;96884;-65
2023/08/18 08:47:11;;;;;;;7.40;4.43;;;;;;;32.69;43.86;101464.97;5017508;27;101176;-65
2023/08/18 08:49:43;;;;;;;6.22;4.30;;;;;;;32.47;43.74;101457.59;5024555;27;99321;-65
2023/08/18 08:52:13;;;;;;;6.85;4.43;;;;;;;32.73;43.79;101473.69;5024432;27;97499;-66
2023/08/18 08:54:48;;;;;;;4.95;4.18;;;;;;;32.72;43.25;101470.13;5024558;27;98921;-65
2023/08/18 08:57:16;;;;;;;5.78;4.00;;;;;;;32.64;42.74;101466.53;5023155;27;99287;-65
2023/08/18 08:59:42;;;;;;;8.65;4.40;;;;;;;32.90;41.94;101466.22;5019642;27;98826;-67
2023/08/18 09:02:09;;;;;;;7.75;4.90;;;;;;;32.93;42.22;101468.59;5020387;27;98512;-65
2023/08/18 09:04:35;;;;;;;7.40;4.47;;;;;;;32.97;42.54;101464.44;5021390;27;96974;-64
2023/08/18 09:07:03;;;;;;;7.97;4.72;;;;;;;32.75;43.27;101455.22;5017934;27;99379;-65
2023/08/18 09:09:30;;;;;;;12.85;4.38;;;;;;;33.23;41.86;101460.31;5020509;27;98141;-64
2023/08/18 09:11:59;;;;;;;8.70;4.72;;;;;;;33.25;41.69;101462.88;5021969;27;97225;-64
2023/08/18 09:14:27;;;;;;;7.07;4.78;;;;;;;33.17;42.34;101460.19;5017205;27;97373;-64
2023/08/18 09:16:53;;;;;;;6.70;4.25;;;;;;;33.22;42.66;101457.75;5020313;27;97164;-65
2023/08/18 09:19:22;;;;;;;5.97;4.10;;;;;;;33.27;40.65;101455.34;5020628;27;99116;-65
2023/08/18 09:21:49;;;;;;;8.18;3.90;;;;;;;33.40;40.41;101450.09;5021667;27;98621;-64
2023/08/18 09:24:20;;;;;;;7.20;5.88;;;;;;;33.52;40.89;101453.22;5025515;27;96931;-65
2023/08/18 09:26:49;;;;;;;5.93;4.15;;;;;;;33.45;41.33;101453.09;5022221;27;99052;-66
2023/08/18 09:29:16;;;;;;;8.57;4.00;;;;;;;33.51;39.39;101449.63;5024446;27;99268;-64
2023/08/18 09:31:45;;;;;;;7.55;4.50;;;;;;;33.41;39.94;101445.47;5025405;27;97652;-65
2023/08/18 09:34:19;;;;;;;9.38;4.78;;;;;;;33.28;39.91;101446.06;5026834;27;97013;-65
2023/08/18 09:36:52;;;;;;;6.72;4.32;;;;;;;33.18;40.41;101438.09;5025363;27;99714;-64
2023/08/18 09:39:20;;;;;;;10.75;4.47;;;;;;;33.69;40.15;101448.38;5025488;27;98095;-65
2023/08/18 09:41:47;;;;;;;9.05;4.03;;;;;;;33.68;40.12;101436.56;5029002;27;97681;-65
2023/08/18 09:44:14;;;;;;;7.70;4.18;;;;;;;33.41;40.68;101438.06;5026165;27;97563;-64
2023/08/18 09:46:42;;;;;;;15.27;4.75;;;;;;;33.62;40.66;101435.44;5027560;27;99296;-65
2023/08/18 09:49:10;;;;;;;13.07;4.72;;;;;;;33.51;40.59;101429.59;5022817;27;99582;-65
2023/08/18 09:51:40;;;;;;;10.80;3.90;;;;;;;33.61;38.93;101422.78;5023518;27;97122;-66
2023/08/18 09:54:12;;;;;;;8.05;4.40;;;;;;;33.74;38.59;101424.06;5024711;27;96920;-65
2023/08/18 09:56:43;;;;;;;6.22;3.65;;;;;;;33.61;38.90;101431.00;5027371;27;99490;-65
2023/08/18 09:59:18;;;;;;;7.28;3.78;;;;;;;33.38;39.02;101423.91;5030428;27;99188;-64
2023/08/18 10:01:56;;;;;;;4.53;3.97;;;;;;;33.51;38.92;101415.88;5026291;27;97409;-65
2023/08/18 10:04:23;;;;;;;5.88;4.07;;;;;;;33.41;40.59;101416.16;5025457;27;96841;-64
2023/08/18 10:06:53;;;;;;;5.47;4.00;;;;;;;33.55;39.86;101423.53;5030576;27;99007;-65
2023/08/18 10:09:22;;;;;;;7.68;4.03;;;;;;;33.31;40.41;101421.06;5027575;27;99856;-65
2023/08/18 10:11:51;;;;;;;4.13;3.72;;;;;;;33.57;39.83;101424.22;5025081;27;99890;-66
2023/08/18 10:14:19;;;;;;;9.77;4.13;;;;;;;33.78;38.93;101422.63;5026981;27;96963;-65
2023/08/18 10:16:47;;;;;;;5.70;3.83;;;;;;;33.82;38.49;101416.56;5026202;27;99348;-66
2023/08/18 10:19:13;;;;;;;7.70;4.00;;;;;;;33.73;39.13;101417.72;5019263;27;99944;-66
2023/08/18 10:21:40;;;;;;;5.65;4.10;;;;;;;33.59;39.63;101410.31;5021884;27;97058;-66
2023/08/18 10:24:08;;;;;;;4.15;3.75;;;;;;;33.80;38.94;101412.34;5027770;27;97353;-65
2023/08/18 10:26:37;;;;;;;5.60;3.95;;;;;;;33.82;37.71;101407.50;5023380;27;97573;-65
2023/08/18 10:29:18;;;;;;;5.47;3.22;;;;;;;33.75;38.22;101410.16;5024494;27;99518;-65
2023/08/18 10:31:48;;;;;;;6.85;3.40;;;;;;;33.84;36.78;101413.66;5024046;27;97697;-65
2023/08/18 10:34:21;;;;;;;4.80;3.55;;;;;;;33.47;37.51;101409.94;5026433;27;96847;-65
2023/08/18 10:36:47;;;;;;;4.68;3.72;;;;;;;33.40;37.95;101402.66;5025924;27;99483;-66
2023/08/18 10:39:24;;;;;;;5.82;3.22;;;;;;;33.66;37.17;101407.69;5028869;27;99489;-66
2023/08/18 10:42:05;;;;;;;4.53;3.45;;;;;;;33.79;36.96;101406.00;5026687;27;97207;-65
2023/08/18 10:44:32;;;;;;;9.55;3.80;;;;;;;33.67;37.81;101406.66;5020967;27;98052;-66
2023/08/18 10:47:04;;;;;;;13.70;3.90;;;;;;;33.66;37.88;101403.06;5023735;27;98966;-66
2023/08/18 10:49:31;;;;;;;5.72;3.78;;;;;;;33.75;37.28;101403.81;5028434;27;101181;-66
2023/08/18 10:51:58;;;;;;;4.43;3.70;;;;;;;33.71;37.76;101397.88;5027278;27;97824;-65
2023/08/18 10:54:24;;;;;;;4.70;3.60;;;;;;;33.63;37.56;101397.94;5026139;27;97441;-65
2023/08/18 10:56:51;;;;;;;5.10;3.47;;;;;;;33.87;37.45;101397.66;5026110;27;101653;-65
2023/08/18 10:59:19;;;;;;;10.82;3.70;;;;;;;33.78;36.91;101398.81;5027431;27;96761;-65
2023/08/18 11:01:48;;;;;;;4.93;3.40;;;;;;;33.92;36.90;101388.88;5026771;27;97981;-65
2023/08/18 11:04:16;;;;;;;6.75;3.67;;;;;;;33.94;37.27;101387.63;5024157;27;96871;-65
2023/08/18 11:06:43;;;;;;;11.50;3.70;;;;;;;33.99;36.66;101384.34;5018544;27;101894;-65
2023/08/18 11:09:12;;;;;;;5.80;3.55;;;;;;;33.99;36.40;101390.69;5020982;27;98758;-65
2023/08/18 11:11:39;;;;;;;8.02;3.75;;;;;;;33.92;36.24;101380.66;5021299;27;98511;-65
2023/08/18 11:14:06;;;;;;;7.07;4.13;;;;;;;33.87;36.65;101378.47;5024432;27;96884;-65
2023/08/18 11:16:36;;;;;;;9.07;3.25;;;;;;;33.71;37.26;101378.69;5022590;27;98259;-65
2023/08/18 11:19:05;;;;;;;4.15;3.70;;;;;;;33.35;37.52;101364.84;5023517;27;99227;-64
2023/08/18 11:21:34;;;;;;;4.85;3.30;;;;;;;33.62;37.74;101368.81;5025885;27;96804;-64